Olga Topic — ELSG4 — position and weather

sailwx.info

Track history (hours):
 
Tides and Currents Weather Stations Pressure Air Temp Water Temp Dewpoint Dewpoint Depression Visibility Wind Speed Wind Dir Waves Ship Positions

Olga Topic

Last reported at 2016-Apr-07 01:31 UTC. Time now 2016-May-02 03:39 UTC.
Position S 30°12' E 031°01'.
Warning: this ship's position is 25 days out of date.

Length 186 m; draft 9.7 m.

Type: Cargo ship. MMSI: 636010327.

Date/timePositionNaut miles runAvg speedWind from/ knotsBaromVisibWave heightAir tempDewpointWater temp
2016-Apr-07 01:31S 30°12' E 031°01'8 8.8
2016-Apr-07 00:33S 30°04' E 031°05'9 9.0
2016-Apr-06 23:33S 29°56' E 031°09'6 5.8
2016-Apr-06 22:33S 29°53' E 031°03'1 0.6
2016-Apr-06 21:32S 29°52' E 031°02'0 0.0
2016-Apr-06 20:31S 29°52' E 031°02'0 0.0
2016-Apr-06 19:25S 29°52' E 031°02'0 0.0
2016-Apr-06 18:31S 29°52' E 031°02'0 0.0
2016-Apr-06 17:31S 29°52' E 031°02'0 0.0
2016-Apr-06 16:28S 29°52' E 031°02'0 0.0
2016-Apr-06 15:31S 29°52' E 031°02'0 0.0
2016-Apr-06 14:28S 29°52' E 031°02'0 0.0
2016-Apr-06 13:31S 29°52' E 031°02'0 0.0
2016-Apr-06 12:28S 29°52' E 031°02'0 0.0
2016-Apr-06 11:31S 29°52' E 031°02'0 0.0
2016-Apr-06 10:28S 29°52' E 031°02'0 0.0
2016-Apr-06 09:28S 29°52' E 031°02'0 0.0
2016-Apr-06 08:33S 29°52' E 031°02'6 6.1
2016-Apr-06 07:33S 29°48' E 031°08'6 6.0
2016-Apr-06 06:33S 29°46' E 031°14'9 9.2
2016-Apr-06 05:33S 29°41' E 031°22'1110.5
2016-Apr-06 04:33S 29°35' E 031°33'  
Track history (hours):
 
Tides and Currents Weather Stations Pressure Air Temp Water Temp Dewpoint Dewpoint Depression Visibility Wind Speed Wind Dir Waves Ship Positions

Olga Topic

Last reported at 2016-Apr-07 01:31 UTC. Time now 2016-May-02 03:39 UTC.
Position S 30°12' E 031°01'.
Warning: this ship's position is 25 days out of date.

Length 186 m; draft 9.7 m.

Type: Cargo ship. MMSI: 636010327.

Date/timePositionNaut miles runAvg speedWind from/ knotsBaromVisibWave heightAir tempDewpointWater temp
2016-Apr-07 01:31S 30°12' E 031°01'8 8.8
2016-Apr-07 00:33S 30°04' E 031°05'9 9.0
2016-Apr-06 23:33S 29°56' E 031°09'6 5.8
2016-Apr-06 22:33S 29°53' E 031°03'1 0.6
2016-Apr-06 21:32S 29°52' E 031°02'0 0.0
2016-Apr-06 20:31S 29°52' E 031°02'0 0.0
2016-Apr-06 19:25S 29°52' E 031°02'0 0.0
2016-Apr-06 18:31S 29°52' E 031°02'0 0.0
2016-Apr-06 17:31S 29°52' E 031°02'0 0.0
2016-Apr-06 16:28S 29°52' E 031°02'0 0.0
2016-Apr-06 15:31S 29°52' E 031°02'0 0.0
2016-Apr-06 14:28S 29°52' E 031°02'0 0.0
2016-Apr-06 13:31S 29°52' E 031°02'0 0.0
2016-Apr-06 12:28S 29°52' E 031°02'0 0.0
2016-Apr-06 11:31S 29°52' E 031°02'0 0.0
2016-Apr-06 10:28S 29°52' E 031°02'0 0.0
2016-Apr-06 09:28S 29°52' E 031°02'0 0.0
2016-Apr-06 08:33S 29°52' E 031°02'6 6.1
2016-Apr-06 07:33S 29°48' E 031°08'6 6.0
2016-Apr-06 06:33S 29°46' E 031°14'9 9.2
2016-Apr-06 05:33S 29°41' E 031°22'1110.5
2016-Apr-06 04:33S 29°35' E 031°33'  

Dump ship's entire track history